createdAt,value
2019-01-17T00:02:17.453Z,-0.50
2019-01-17T00:05:04.127Z,-0.54
2019-01-17T00:07:50.825Z,-0.57
2019-01-17T00:10:36.045Z,-0.60
2019-01-17T00:13:38.091Z,-0.63
2019-01-17T00:16:23.500Z,-0.66
2019-01-17T00:19:18.969Z,-0.70
2019-01-17T00:22:08.137Z,-0.71
2019-01-17T00:25:00.594Z,-0.72
2019-01-17T00:27:59.134Z,-0.74
2019-01-17T00:30:48.542Z,-0.74
2019-01-17T00:33:30.006Z,-0.71
2019-01-17T00:36:22.138Z,-0.68
2019-01-17T00:38:59.988Z,-0.65
2019-01-17T00:41:45.126Z,-0.63
2019-01-17T00:44:46.549Z,-0.61
2019-01-17T00:47:43.260Z,-0.60
2019-01-17T00:50:28.504Z,-0.61
2019-01-17T00:53:07.079Z,-0.64
2019-01-17T00:56:01.752Z,-0.64
2019-01-17T00:58:42.530Z,-0.64
2019-01-17T01:01:38.452Z,-0.65
2019-01-17T01:04:40.170Z,-0.65
2019-01-17T01:07:24.696Z,-0.64
2019-01-17T01:10:26.409Z,-0.60
2019-01-17T01:13:18.346Z,-0.57
2019-01-17T01:16:21.195Z,-0.53
2019-01-17T01:18:58.778Z,-0.50
2019-01-17T01:21:40.310Z,-0.50
2019-01-17T01:24:19.355Z,-0.51
2019-01-17T01:27:08.207Z,-0.55
2019-01-17T01:29:56.978Z,-0.55
2019-01-17T01:32:41.122Z,-0.57
2019-01-17T01:35:33.810Z,-0.58
2019-01-17T01:38:26.237Z,-0.60
2019-01-17T01:41:27.979Z,-0.63
2019-01-17T01:44:07.835Z,-0.67
2019-01-17T01:47:03.282Z,-0.70
2019-01-17T01:49:49.971Z,-0.71
2019-01-17T01:52:33.165Z,-0.71
2019-01-17T01:55:00.246Z,-0.72
2019-01-17T01:57:27.265Z,-0.73
2019-01-17T01:59:54.316Z,-0.70
2019-01-17T02:02:21.357Z,-0.70
2019-01-17T02:04:48.405Z,-0.70
2019-01-17T02:07:15.484Z,-0.71
2019-01-17T02:09:42.543Z,-0.68
2019-01-17T02:12:09.591Z,-0.64
2019-01-17T02:14:36.743Z,-0.64
2019-01-17T02:17:03.777Z,-0.63
2019-01-17T02:19:30.907Z,-0.62
2019-01-17T02:21:57.953Z,-0.61
2019-01-17T02:24:28.535Z,-0.61
2019-01-17T02:26:53.933Z,-0.58
2019-01-17T02:29:20.986Z,-0.57
2019-01-17T02:31:48.028Z,-0.56
2019-01-17T02:34:15.083Z,-0.56
2019-01-17T02:36:42.126Z,-0.55
2019-01-17T02:39:09.169Z,-0.52
2019-01-17T02:41:36.227Z,-0.49
2019-01-17T02:44:03.260Z,-0.49
2019-01-17T02:46:30.314Z,-0.48
2019-01-17T02:48:57.355Z,-0.47
2019-01-17T02:51:24.392Z,-0.48
2019-01-17T02:53:51.419Z,-0.49
2019-01-17T02:56:18.478Z,-0.50
2019-01-17T02:58:45.512Z,-0.51
2019-01-17T03:01:12.542Z,-0.54
2019-01-17T03:03:39.585Z,-0.59
2019-01-17T03:06:06.642Z,-0.63
2019-01-17T03:08:33.676Z,-0.65
2019-01-17T03:11:00.726Z,-0.72
2019-01-17T03:13:27.788Z,-0.83
2019-01-17T03:15:54.826Z,-0.91
2019-01-17T03:18:21.848Z,-0.97
2019-01-17T03:20:48.890Z,-1.05
2019-01-17T03:23:16.234Z,-1.09
2019-01-17T03:25:43.288Z,-1.15
2019-01-17T03:28:10.366Z,-1.21
2019-01-17T03:30:37.422Z,-1.27
2019-01-17T03:33:04.464Z,-1.34
2019-01-17T03:35:31.510Z,-1.41
2019-01-17T03:37:58.537Z,-1.46
2019-01-17T03:40:25.567Z,-1.46
2019-01-17T03:42:52.627Z,-1.49
2019-01-17T03:45:19.673Z,-1.48
2019-01-17T03:47:46.716Z,-1.49
2019-01-17T03:50:14.328Z,-1.49
2019-01-17T03:52:41.427Z,-1.64
2019-01-17T03:55:10.039Z,-1.64
2019-01-17T03:57:37.073Z,-1.67
2019-01-17T04:00:06.432Z,-1.74
2019-01-17T04:02:33.471Z,-1.78
2019-01-17T04:05:00.731Z,-1.81
2019-01-17T04:07:27.773Z,-1.86
2019-01-17T04:09:54.815Z,-1.86
2019-01-17T04:12:21.851Z,-1.78
2019-01-17T04:14:48.907Z,-1.75
2019-01-17T04:17:15.933Z,-1.75
2019-01-17T04:19:42.956Z,-1.73
2019-01-17T04:22:09.981Z,-1.77
2019-01-17T04:24:39.873Z,-1.69
2019-01-17T04:27:06.909Z,-1.68
2019-01-17T04:29:33.961Z,-1.65
2019-01-17T04:32:01.005Z,-1.65
2019-01-17T04:34:28.037Z,-1.65
2019-01-17T04:36:55.088Z,-1.65
2019-01-17T04:39:22.123Z,-1.65
2019-01-17T04:41:49.143Z,-1.67
2019-01-17T04:44:16.168Z,-1.67
2019-01-17T04:46:43.218Z,-1.69
2019-01-17T04:49:10.244Z,-1.71
2019-01-17T04:51:37.278Z,-1.71
2019-01-17T04:54:04.341Z,-1.74
2019-01-17T04:56:31.384Z,-1.75
2019-01-17T04:58:58.432Z,-1.76
2019-01-17T05:01:25.467Z,-1.76
2019-01-17T05:03:53.008Z,-1.77
2019-01-17T05:06:20.016Z,-1.77
2019-01-17T05:08:47.041Z,-1.78
2019-01-17T05:11:14.070Z,-1.77
2019-01-17T05:13:41.102Z,-1.79
2019-01-17T05:16:08.164Z,-1.84
2019-01-17T05:18:35.197Z,-1.86
2019-01-17T05:21:02.220Z,-1.86
2019-01-17T05:23:29.239Z,-1.92
2019-01-17T05:25:56.276Z,-1.96
2019-01-17T05:28:23.288Z,-1.97
2019-01-17T05:30:50.332Z,-2.00
2019-01-17T05:33:17.353Z,-2.05
2019-01-17T05:35:44.715Z,-2.11
2019-01-17T05:38:11.767Z,-2.14
2019-01-17T05:40:38.822Z,-2.12
2019-01-17T05:43:05.834Z,-2.10
2019-01-17T05:45:32.874Z,-2.07
2019-01-17T05:47:59.914Z,-2.05
2019-01-17T05:50:26.968Z,-2.02
2019-01-17T05:52:54.007Z,-1.98
2019-01-17T05:55:21.062Z,-1.94
2019-01-17T05:57:48.167Z,-1.91
2019-01-17T06:00:19.417Z,-1.86
2019-01-17T06:02:46.473Z,-1.82
2019-01-17T06:05:13.712Z,-1.77
2019-01-17T06:07:40.758Z,-0.98
2019-01-17T06:10:08.900Z,-0.04
2019-01-17T06:12:35.949Z,0.47
2019-01-17T06:15:03.913Z,0.98
2019-01-17T06:17:30.965Z,1.33
2019-01-17T06:19:58.005Z,1.63
2019-01-17T06:22:25.054Z,1.82
2019-01-17T06:24:52.065Z,1.94
2019-01-17T06:27:19.114Z,1.95
2019-01-17T06:29:46.137Z,2.11
2019-01-17T06:32:13.187Z,2.06
2019-01-17T06:34:40.238Z,1.64
2019-01-17T06:37:07.253Z,1.23
2019-01-17T06:39:34.289Z,0.88
2019-01-17T06:42:01.311Z,0.58
2019-01-17T06:44:28.349Z,0.36
2019-01-17T06:46:55.384Z,0.19
2019-01-17T06:49:22.421Z,0.05
2019-01-17T06:51:49.449Z,-0.11
2019-01-17T06:54:16.496Z,-0.21
2019-01-17T06:56:43.522Z,-0.28
2019-01-17T06:59:10.566Z,-0.27
2019-01-17T07:01:37.585Z,-0.23
2019-01-17T07:04:04.609Z,-0.08
2019-01-17T07:06:31.672Z,0.19
2019-01-17T07:08:58.705Z,0.29
2019-01-17T07:11:25.850Z,0.27
2019-01-17T07:13:52.893Z,0.18
2019-01-17T07:16:20.044Z,0.13
2019-01-17T07:18:47.090Z,0.09
2019-01-17T07:21:14.113Z,0.14
2019-01-17T07:23:41.160Z,0.27
2019-01-17T07:26:08.190Z,0.58
2019-01-17T07:28:35.248Z,0.86
2019-01-17T07:31:02.281Z,1.00
2019-01-17T07:33:29.303Z,0.96
2019-01-17T07:35:56.346Z,0.80
2019-01-17T07:38:23.437Z,0.68
2019-01-17T07:40:50.469Z,0.58
2019-01-17T07:43:17.497Z,0.51
2019-01-17T07:45:44.535Z,0.43
2019-01-17T07:48:11.558Z,0.37
2019-01-17T07:50:38.601Z,0.31
2019-01-17T07:53:05.628Z,0.26
2019-01-17T07:55:32.681Z,0.21
2019-01-17T07:57:59.736Z,0.17
2019-01-17T08:00:26.798Z,0.14
2019-01-17T08:02:53.848Z,0.12
2019-01-17T08:05:20.852Z,0.10
2019-01-17T08:07:47.942Z,0.08
2019-01-17T08:10:16.004Z,0.08
2019-01-17T08:12:43.033Z,0.16
2019-01-17T08:15:10.579Z,0.23
2019-01-17T08:17:37.611Z,0.29
2019-01-17T08:20:07.185Z,0.36
2019-01-17T08:22:34.215Z,0.42
2019-01-17T08:25:01.276Z,0.48
2019-01-17T08:27:28.315Z,0.61
2019-01-17T08:29:55.351Z,0.75
2019-01-17T08:32:22.400Z,0.87
2019-01-17T08:34:49.428Z,0.98
2019-01-17T08:37:16.460Z,1.04
2019-01-17T08:39:43.515Z,1.15
2019-01-17T08:42:10.586Z,1.27
2019-01-17T08:44:37.626Z,1.34
2019-01-17T08:47:04.688Z,1.53
2019-01-17T08:49:31.715Z,1.88
2019-01-17T08:51:58.793Z,2.45
2019-01-17T08:54:25.788Z,2.93
2019-01-17T08:56:52.851Z,3.34
2019-01-17T08:59:19.906Z,3.84
2019-01-17T09:01:46.956Z,3.92
2019-01-17T09:04:13.987Z,3.66
2019-01-17T09:06:41.036Z,3.38
2019-01-17T09:09:08.767Z,3.17
2019-01-17T09:11:35.783Z,3.02
2019-01-17T09:14:03.051Z,2.90
2019-01-17T09:16:30.083Z,2.82
2019-01-17T09:18:57.123Z,2.74
2019-01-17T09:21:24.157Z,2.68
2019-01-17T09:23:51.193Z,2.63
2019-01-17T09:26:18.252Z,2.62
2019-01-17T09:28:45.299Z,2.59
2019-01-17T09:31:13.128Z,2.58
2019-01-17T09:33:40.160Z,2.55
2019-01-17T09:36:07.207Z,2.56
2019-01-17T09:38:34.234Z,2.57
2019-01-17T09:41:01.279Z,2.58
2019-01-17T09:43:28.314Z,2.62
2019-01-17T09:45:55.336Z,2.69
2019-01-17T09:48:22.365Z,2.76
2019-01-17T09:50:49.383Z,2.87
2019-01-17T09:53:16.420Z,3.00
2019-01-17T09:55:43.461Z,3.10
2019-01-17T09:58:10.493Z,3.21
2019-01-17T10:00:37.542Z,3.34
2019-01-17T10:03:04.586Z,3.46
2019-01-17T10:05:31.624Z,3.58
2019-01-17T10:07:58.650Z,3.73
2019-01-17T10:10:25.998Z,3.91
2019-01-17T10:12:53.228Z,4.06
2019-01-17T10:15:24.084Z,4.14
2019-01-17T10:18:44.922Z,4.24
2019-01-17T10:22:01.155Z,4.29
2019-01-17T10:24:54.393Z,4.34
2019-01-17T10:28:18.714Z,4.36
2019-01-17T10:31:10.652Z,4.48
2019-01-17T10:33:58.602Z,4.69
2019-01-17T10:36:54.249Z,4.92
2019-01-17T10:40:01.601Z,5.13
2019-01-17T10:42:51.042Z,5.36
2019-01-17T10:46:07.911Z,5.62
2019-01-17T10:49:12.506Z,5.84
2019-01-17T10:52:11.478Z,6.09
2019-01-17T10:55:44.404Z,6.33
2019-01-17T10:58:29.404Z,6.55
2019-01-17T11:01:26.743Z,6.72
2019-01-17T11:04:14.656Z,6.83
2019-01-17T11:07:26.035Z,6.95
2019-01-17T11:10:33.134Z,7.05
2019-01-17T11:13:24.523Z,7.18
2019-01-17T11:16:06.116Z,7.28
2019-01-17T11:19:15.131Z,7.31
2019-01-17T11:22:39.382Z,7.31
2019-01-17T11:25:24.319Z,7.27
2019-01-17T11:28:18.609Z,7.24
2019-01-17T11:31:29.559Z,7.17
2019-01-17T11:34:27.613Z,7.11
2019-01-17T11:37:47.302Z,7.03
2019-01-17T11:40:28.900Z,7.02
2019-01-17T11:43:43.486Z,7.06
2019-01-17T11:46:43.207Z,7.11
2019-01-17T11:49:37.839Z,7.09
2019-01-17T11:52:51.401Z,7.04
2019-01-17T11:55:46.482Z,6.92
2019-01-17T11:58:36.103Z,6.91
2019-01-17T12:01:17.797Z,6.98
2019-01-17T12:04:20.215Z,7.10
2019-01-17T12:06:47.282Z,7.18
2019-01-17T12:09:14.317Z,7.22
2019-01-17T12:11:41.390Z,7.16
2019-01-17T12:14:08.438Z,7.14
2019-01-17T12:16:35.478Z,7.16
2019-01-17T12:19:02.543Z,7.19
2019-01-17T12:21:29.606Z,7.23
2019-01-17T12:23:56.825Z,7.22
2019-01-17T12:26:23.864Z,7.22
2019-01-17T12:28:51.010Z,7.18
2019-01-17T12:31:18.067Z,7.16
2019-01-17T12:33:45.112Z,7.12
2019-01-17T12:36:14.138Z,7.04
2019-01-17T12:38:41.175Z,6.97
2019-01-17T12:41:10.486Z,6.94
2019-01-17T12:43:37.568Z,6.97
2019-01-17T12:46:04.630Z,7.06
2019-01-17T12:48:31.674Z,7.13
2019-01-17T12:50:58.720Z,7.20
2019-01-17T12:53:25.793Z,7.23
2019-01-17T12:55:52.862Z,7.34
2019-01-17T12:58:19.939Z,7.47
2019-01-17T13:00:47.008Z,7.61
2019-01-17T13:03:14.085Z,7.73
2019-01-17T13:05:41.120Z,7.79
2019-01-17T13:08:08.186Z,7.79
2019-01-17T13:10:35.255Z,7.75
2019-01-17T13:13:02.351Z,7.74
2019-01-17T13:15:29.399Z,7.72
2019-01-17T13:17:56.469Z,7.65
2019-01-17T13:20:23.527Z,7.53
2019-01-17T13:22:50.599Z,7.40
2019-01-17T13:25:19.404Z,7.34
2019-01-17T13:27:46.476Z,7.33
2019-01-17T13:30:15.682Z,7.30
2019-01-17T13:32:42.820Z,7.26
2019-01-17T13:35:09.898Z,7.26
2019-01-17T13:37:36.930Z,7.28
2019-01-17T13:40:06.735Z,7.33
2019-01-17T13:42:33.771Z,7.39
2019-01-17T13:45:00.859Z,7.43
2019-01-17T13:47:27.901Z,7.41
2019-01-17T13:49:54.948Z,7.43
2019-01-17T13:52:22.013Z,7.42
2019-01-17T13:54:49.088Z,7.44
2019-01-17T13:57:16.167Z,7.46
2019-01-17T13:59:43.239Z,7.42
2019-01-17T14:02:10.305Z,7.42
2019-01-17T14:04:37.361Z,7.42
2019-01-17T14:07:04.429Z,7.36
2019-01-17T14:09:31.482Z,7.33
2019-01-17T14:11:58.556Z,7.35
2019-01-17T14:14:25.623Z,7.32
2019-01-17T14:16:52.773Z,7.30
2019-01-17T14:19:19.830Z,7.31
2019-01-17T14:21:46.879Z,7.40
2019-01-17T14:24:13.931Z,7.46
2019-01-17T14:26:41.063Z,7.40
2019-01-17T14:29:08.146Z,7.30
2019-01-17T14:31:35.190Z,7.30
2019-01-17T14:34:02.281Z,7.16
2019-01-17T14:36:29.353Z,7.13
2019-01-17T14:38:59.945Z,7.03
2019-01-17T14:41:28.869Z,6.94
2019-01-17T14:43:55.932Z,6.84
2019-01-17T14:46:23.020Z,6.80
2019-01-17T14:48:50.084Z,6.66
2019-01-17T14:51:17.150Z,6.57
2019-01-17T14:53:44.212Z,6.50
2019-01-17T14:56:11.272Z,6.43
2019-01-17T14:58:38.311Z,6.41
2019-01-17T15:01:05.378Z,6.37
2019-01-17T15:03:32.463Z,6.36
2019-01-17T15:05:59.520Z,6.34
2019-01-17T15:08:26.580Z,6.28
2019-01-17T15:10:53.624Z,6.23
2019-01-17T15:13:20.714Z,6.24
2019-01-17T15:15:47.768Z,6.17
2019-01-17T15:18:14.848Z,6.10
2019-01-17T15:20:42.390Z,6.04
2019-01-17T15:23:10.249Z,6.00
2019-01-17T15:25:37.294Z,5.89
2019-01-17T15:28:05.864Z,5.82
2019-01-17T15:30:33.018Z,5.75
2019-01-17T15:33:00.081Z,5.72
2019-01-17T15:35:27.143Z,5.64
2019-01-17T15:37:54.175Z,5.53
2019-01-17T15:40:26.227Z,5.48
2019-01-17T15:42:53.286Z,5.40
2019-01-17T15:45:20.333Z,5.34
2019-01-17T15:47:47.468Z,5.29
2019-01-17T15:50:14.618Z,5.25
2019-01-17T15:52:41.722Z,5.16
2019-01-17T15:55:10.049Z,5.15
2019-01-17T15:57:37.449Z,5.14
2019-01-17T16:00:06.305Z,5.13
2019-01-17T16:02:33.345Z,5.08
2019-01-17T16:05:00.376Z,5.08
2019-01-17T16:07:27.421Z,5.02
2019-01-17T16:09:54.509Z,4.92
2019-01-17T16:12:21.709Z,4.83
2019-01-17T16:14:48.765Z,4.76
2019-01-17T16:17:15.869Z,4.69
2019-01-17T16:19:42.962Z,4.72
2019-01-17T16:22:10.135Z,4.70
2019-01-17T16:24:37.245Z,4.71
2019-01-17T16:27:04.330Z,4.70
2019-01-17T16:29:31.389Z,4.65
2019-01-17T16:31:58.514Z,4.63
2019-01-17T16:34:25.631Z,4.56
2019-01-17T16:36:52.733Z,4.52
2019-01-17T16:39:19.860Z,4.45
2019-01-17T16:41:46.963Z,4.42
2019-01-17T16:44:14.058Z,4.39
2019-01-17T16:46:41.112Z,4.37
2019-01-17T16:49:08.172Z,4.34
2019-01-17T16:51:35.315Z,4.29
2019-01-17T16:54:02.432Z,4.28
2019-01-17T16:56:29.599Z,4.27
2019-01-17T16:58:56.714Z,4.25
2019-01-17T17:01:23.812Z,4.23
2019-01-17T17:03:50.933Z,4.20
2019-01-17T17:06:18.079Z,4.14
2019-01-17T17:08:45.210Z,4.16
2019-01-17T17:11:12.367Z,4.18
2019-01-17T17:13:39.486Z,4.15
2019-01-17T17:16:06.561Z,4.10
2019-01-17T17:18:34.835Z,4.09
2019-01-17T17:21:01.917Z,4.08
2019-01-17T17:23:29.068Z,4.07
2019-01-17T17:25:56.196Z,4.06
2019-01-17T17:28:23.341Z,4.06
2019-01-17T17:30:50.724Z,4.05
2019-01-17T17:33:17.857Z,4.05
2019-01-17T17:35:44.985Z,4.01
2019-01-17T17:38:12.151Z,4.00
2019-01-17T17:40:39.279Z,3.97
2019-01-17T17:43:06.449Z,3.98
2019-01-17T17:45:33.535Z,3.93
2019-01-17T17:48:01.397Z,3.91
2019-01-17T17:50:29.065Z,3.89
2019-01-17T17:52:56.174Z,3.86
2019-01-17T17:55:23.319Z,3.83
2019-01-17T17:57:50.700Z,3.79
2019-01-17T18:00:36.905Z,3.77
2019-01-17T18:03:04.059Z,3.78
2019-01-17T18:05:31.223Z,3.75
2019-01-17T18:07:58.341Z,3.72
2019-01-17T18:10:25.484Z,3.68
2019-01-17T18:12:54.136Z,3.66
2019-01-17T18:15:21.260Z,3.65
2019-01-17T18:17:48.442Z,3.69
2019-01-17T18:20:16.081Z,3.72
2019-01-17T18:22:45.447Z,3.74
2019-01-17T18:25:12.580Z,3.77
2019-01-17T18:27:41.505Z,3.78
2019-01-17T18:30:12.601Z,3.78
2019-01-17T18:32:41.576Z,3.79
2019-01-17T18:35:09.298Z,3.78
2019-01-17T18:37:39.321Z,3.76
2019-01-17T18:40:08.582Z,3.75
2019-01-17T18:42:35.764Z,3.80
2019-01-17T18:45:05.034Z,3.79
2019-01-17T18:47:32.233Z,3.77
2019-01-17T18:49:59.435Z,3.76
2019-01-17T18:52:26.635Z,3.73
2019-01-17T18:54:54.124Z,3.72
2019-01-17T18:57:21.434Z,3.69
2019-01-17T18:59:51.829Z,3.72
2019-01-17T19:02:25.281Z,3.72
2019-01-17T19:04:54.031Z,3.70
2019-01-17T19:07:22.226Z,3.73
2019-01-17T19:09:51.124Z,3.76
2019-01-17T19:12:19.464Z,3.75
2019-01-17T19:14:47.145Z,3.73
2019-01-17T19:17:19.542Z,3.72
2019-01-17T19:19:49.086Z,3.70
2019-01-17T19:22:16.955Z,3.71
2019-01-17T19:24:44.243Z,3.74
2019-01-17T19:27:11.991Z,3.73
2019-01-17T19:29:40.469Z,3.71
2019-01-17T19:32:07.735Z,3.71
2019-01-17T19:34:36.033Z,3.69
2019-01-17T19:37:05.884Z,3.66
2019-01-17T19:39:33.375Z,3.64
2019-01-17T19:42:01.208Z,3.61
2019-01-17T19:44:29.240Z,3.60
2019-01-17T19:47:00.787Z,3.61
2019-01-17T19:49:31.095Z,3.65
2019-01-17T19:51:59.934Z,3.66
2019-01-17T19:54:28.208Z,3.68
2019-01-17T19:56:55.972Z,3.69
2019-01-17T19:59:23.361Z,3.70
2019-01-17T20:01:51.227Z,3.73
2019-01-17T20:04:21.031Z,3.73
2019-01-17T20:06:51.233Z,3.74
2019-01-17T20:09:19.094Z,3.73
2019-01-17T20:11:47.534Z,3.71
2019-01-17T20:14:14.954Z,3.67
2019-01-17T20:16:42.302Z,3.71
2019-01-17T20:19:13.790Z,3.72
2019-01-17T20:21:42.911Z,3.66
2019-01-17T20:24:11.722Z,3.66
2019-01-17T20:26:39.043Z,3.67
2019-01-17T20:29:06.557Z,3.65
2019-01-17T20:31:34.123Z,3.64
2019-01-17T20:34:01.811Z,3.63
2019-01-17T20:36:32.295Z,3.68
2019-01-17T20:38:59.726Z,3.65
2019-01-17T20:41:27.024Z,3.64
2019-01-17T20:43:54.740Z,3.62
2019-01-17T20:46:21.987Z,3.59
2019-01-17T20:48:49.711Z,3.58
2019-01-17T20:51:17.188Z,3.58
2019-01-17T20:53:44.337Z,3.58
2019-01-17T20:56:11.509Z,3.56
2019-01-17T20:58:42.594Z,3.51
2019-01-17T21:01:54.223Z,3.45
2019-01-17T21:04:21.411Z,3.41
2019-01-17T21:06:48.534Z,3.43
2019-01-17T21:09:15.983Z,3.42
2019-01-17T21:11:44.138Z,3.40
2019-01-17T21:14:11.300Z,3.38
2019-01-17T21:16:38.443Z,3.38
2019-01-17T21:19:08.106Z,3.38
2019-01-17T21:21:35.524Z,3.36
2019-01-17T21:24:02.792Z,3.38
2019-01-17T21:26:32.886Z,3.37
2019-01-17T21:29:00.387Z,3.39
2019-01-17T21:31:27.514Z,3.43
2019-01-17T21:33:54.619Z,3.40
2019-01-17T21:36:21.756Z,3.41
2019-01-17T21:38:48.902Z,3.42
2019-01-17T21:41:16.043Z,3.39
2019-01-17T21:43:43.143Z,3.36
2019-01-17T21:46:10.296Z,3.32
2019-01-17T21:48:37.420Z,3.29
2019-01-17T21:51:04.574Z,3.26
2019-01-17T21:53:31.680Z,3.21
2019-01-17T21:55:58.825Z,3.17
2019-01-17T21:58:25.930Z,3.17
2019-01-17T22:00:53.062Z,3.16
2019-01-17T22:03:20.134Z,3.14
2019-01-17T22:05:47.195Z,3.13
2019-01-17T22:08:14.283Z,3.11
2019-01-17T22:10:43.523Z,3.09
2019-01-17T22:13:10.616Z,3.08
2019-01-17T22:15:37.683Z,3.06
2019-01-17T22:18:04.798Z,3.06
2019-01-17T22:20:31.894Z,3.06
2019-01-17T22:22:58.992Z,3.05
2019-01-17T22:25:26.046Z,3.05
2019-01-17T22:27:53.121Z,3.05
2019-01-17T22:30:21.969Z,3.07
2019-01-17T22:32:49.002Z,3.08
2019-01-17T22:35:16.052Z,3.12
2019-01-17T22:37:43.097Z,3.13
2019-01-17T22:40:11.456Z,3.13
2019-01-17T22:42:38.503Z,3.17
2019-01-17T22:45:07.892Z,3.17
2019-01-17T22:47:34.931Z,3.17
2019-01-17T22:50:01.986Z,3.19
2019-01-17T22:52:29.004Z,3.19
2019-01-17T22:54:56.048Z,3.17
2019-01-17T22:57:23.096Z,3.15
2019-01-17T22:59:50.130Z,3.17
2019-01-17T23:02:17.175Z,3.19
2019-01-17T23:04:44.212Z,3.24
2019-01-17T23:07:11.251Z,3.28
2019-01-17T23:09:38.289Z,3.28
2019-01-17T23:12:05.366Z,3.28
2019-01-17T23:14:32.405Z,3.27
2019-01-17T23:16:59.498Z,3.25
2019-01-17T23:19:26.531Z,3.19
2019-01-17T23:21:53.571Z,3.13
2019-01-17T23:24:20.623Z,3.10
2019-01-17T23:26:47.661Z,3.03
2019-01-17T23:29:16.063Z,2.96
2019-01-17T23:31:43.299Z,2.90
2019-01-17T23:34:10.347Z,2.84
2019-01-17T23:36:37.410Z,2.79
2019-01-17T23:39:07.444Z,2.74
2019-01-17T23:41:34.508Z,2.67
2019-01-17T23:44:01.539Z,2.62
2019-01-17T23:46:28.604Z,2.57
2019-01-17T23:48:55.637Z,2.53
2019-01-17T23:51:22.691Z,2.49
2019-01-17T23:53:49.710Z,2.49
2019-01-17T23:56:16.770Z,2.46
2019-01-17T23:58:43.794Z,2.43
